Stations météo

réclame
Mon MeteoGroup
Southampton oceanography centre, Grande-Bretagne (99079): Température de l'air & dewpoint: 01.07.2020 03:00:00 - 07.07.2020 03:00:00 (BST)Southampton oceanography centre, Grande-Bretagne (99079): Vitesse du vent & gusts: 01.07.2020 03:00:00 - 07.07.2020 03:00:00 (BST)Southampton oceanography centre, Grande-Bretagne (99079): Direction du vent: 01.07.2020 03:00:00 - 07.07.2020 03:00:00 (BST)Southampton oceanography centre, Grande-Bretagne (99079): Quantités de précipitations: 01.07.2020 03:00:00 - 07.07.2020 03:00:00 (BST)
Date & Time tt [°C] td [°C] ff [km/h] ff [knt] fx [km/h] fx [knt] dd rr [mm]
07.07.2020 03:00:00 - - - - - - - -
07.07.2020 02:00:00 13,1 10,2 11 6 - - WNW 0,0
07.07.2020 01:00:00 13,7 10,3 15 8 - - WNW 0,0
07.07.2020 00:00:00 14,3 10,2 11 6 - - NW 0,0
06.07.2020 23:00:00 15,5 9,7 15 8 - - NW 0,0
06.07.2020 22:00:00 16,6 9,9 13 7 - - W 0,0
06.07.2020 21:00:00 18,0 10,3 22 12 - - W 0,0
06.07.2020 20:00:00 18,9 10,7 16 9 - - W 0,0
06.07.2020 19:00:00 19,1 9,8 11 6 - - WNW 0,0
06.07.2020 18:00:00 18,7 9,5 15 8 - - WNW 0,0
06.07.2020 17:00:00 19,8 9,7 15 8 - - W 0,0
06.07.2020 16:00:00 18,6 9,4 22 12 - - WNW 0,0
06.07.2020 15:00:00 18,1 8,7 16 9 - - WNW 0,0
06.07.2020 14:00:00 18,1 8,4 18 10 - - WNW 0,0
06.07.2020 13:00:00 18,3 7,1 21 11 - - WNW 0,0
06.07.2020 12:00:00 17,8 6,6 16 9 - - NW 0,0
06.07.2020 11:00:00 16,4 7,5 22 12 - - WNW 0,0
06.07.2020 10:00:00 16,1 7,8 28 15 - - W 0,0
06.07.2020 09:00:00 15,3 8,0 21 11 - - WNW 0,0
06.07.2020 08:00:00 14,7 9,2 24 13 - - WNW 0,0
06.07.2020 07:00:00 13,5 9,9 15 8 - - WSW 0,0
06.07.2020 06:00:00 12,3 9,7 15 8 - - WSW 0,0
06.07.2020 05:00:00 12,0 9,4 13 7 - - WSW 0,0
06.07.2020 04:00:00 12,5 9,3 21 11 - - WSW 0,0
06.07.2020 03:00:00 12,6 9,2 16 9 - - WSW 0,0
06.07.2020 02:00:00 12,5 8,8 21 11 - - WSW 0,0
06.07.2020 01:00:00 12,7 8,3 22 12 - - WSW 0,0
06.07.2020 00:00:00 13,4 8,2 15 8 - - WSW 0,0
05.07.2020 23:00:00 14,4 8,2 28 15 - - W 0,0
05.07.2020 22:00:00 15,3 7,8 21 11 - - W 0,0
05.07.2020 21:00:00 16,3 7,3 35 19 55 30 W 0,0
05.07.2020 20:00:00 17,2 7,2 35 19 63 34 W 0,0
05.07.2020 19:00:00 18,5 7,4 39 21 57 31 W 0,0
05.07.2020 18:00:00 18,6 7,3 35 19 61 33 W 0,0
05.07.2020 17:00:00 19,4 8,5 34 18 63 34 W 0,0
05.07.2020 16:00:00 19,6 8,5 37 20 57 31 W 0,0
05.07.2020 15:00:00 19,3 7,7 37 20 57 31 W 0,0
05.07.2020 14:00:00 19,6 9,2 34 18 52 28 W 0,0
05.07.2020 13:00:00 18,8 8,7 29 16 57 31 W 0,0
05.07.2020 12:00:00 18,4 9,4 26 14 54 29 W 0,0
05.07.2020 11:00:00 17,9 9,4 41 22 57 31 W 0,0
05.07.2020 10:00:00 17,8 10,5 42 23 59 32 W 0,0
05.07.2020 09:00:00 18,1 14,5 26 14 46 25 WSW 0,0
05.07.2020 08:00:00 17,7 15,3 21 11 - - WSW 0,0
05.07.2020 07:00:00 16,4 15,1 26 14 - - SW 0,0
05.07.2020 06:00:00 16,1 15,2 29 16 55 30 SW 0,0
05.07.2020 05:00:00 16,0 15,1 37 20 57 31 SW 0,0
05.07.2020 04:00:00 16,0 14,9 42 23 67 36 SW 0,0
05.07.2020 03:00:00 16,1 14,9 37 20 57 31 WSW 0,0
05.07.2020 02:00:00 15,8 14,6 35 19 52 28 SW 0,0
05.07.2020 01:00:00 16,0 14,5 28 15 54 29 WSW 0,0
05.07.2020 00:00:00 16,3 14,6 28 15 - - WSW 0,0
04.07.2020 23:00:00 16,5 14,9 24 13 - - SW 0,0
04.07.2020 22:00:00 16,7 15,3 18 10 - - SW 0,0
04.07.2020 21:00:00 17,0 15,5 21 11 - - SW 0,0
04.07.2020 20:00:00 17,3 15,6 21 11 - - SW 0,0
04.07.2020 19:00:00 17,7 15,6 24 13 - - SW 0,0
04.07.2020 18:00:00 17,6 15,4 34 18 52 28 SW 0,0
04.07.2020 17:00:00 17,5 15,6 35 19 59 32 SW 0,0
04.07.2020 16:00:00 17,3 15,6 35 19 57 31 SW 0,0
04.07.2020 15:00:00 17,5 15,5 41 22 55 30 SW 0,0
04.07.2020 14:00:00 17,7 15,6 34 18 61 33 SW 0,0
04.07.2020 13:00:00 17,7 15,8 28 15 54 29 SW 0,0
04.07.2020 12:00:00 17,1 15,8 24 13 54 29 SW 0,0
04.07.2020 11:00:00 16,9 15,5 29 16 50 27 SW 0,0
04.07.2020 10:00:00 17,3 15,7 29 16 48 26 SW 0,0
04.07.2020 09:00:00 16,6 15,7 31 17 - - SW 0,0
04.07.2020 08:00:00 16,3 15,6 31 17 46 25 SW 0,0
04.07.2020 07:00:00 16,0 15,5 24 13 - - SW 0,0
04.07.2020 06:00:00 15,9 15,2 31 17 57 31 SW 0,0
04.07.2020 05:00:00 15,7 15,0 35 19 54 29 SW 0,0
04.07.2020 04:00:00 15,5 14,8 37 20 52 28 SSW 0,0
04.07.2020 03:00:00 15,4 14,7 35 19 52 28 SW 0,0
04.07.2020 02:00:00 15,2 14,3 28 15 52 28 SW 0,0
04.07.2020 01:00:00 15,1 14,1 37 20 57 31 SW 0,0
04.07.2020 00:00:00 15,2 13,7 39 21 61 33 SW 0,0
03.07.2020 23:00:00 15,2 13,5 41 22 55 30 SW 0,0
03.07.2020 22:00:00 15,2 13,1 31 17 48 26 SW 0,0
03.07.2020 21:00:00 14,8 13,0 31 17 48 26 SW 0,0
03.07.2020 20:00:00 14,9 12,8 31 17 54 29 SW 0,0
03.07.2020 19:00:00 15,9 12,0 34 18 59 32 SW 0,0
03.07.2020 18:00:00 16,4 11,2 42 23 61 33 SW 0,0
03.07.2020 17:00:00 17,3 11,4 37 20 65 35 SW 0,0
03.07.2020 16:00:00 17,5 11,4 44 24 61 33 SW 0,0
03.07.2020 15:00:00 17,8 10,9 41 22 65 35 SW 0,0
03.07.2020 14:00:00 17,8 10,9 39 21 68 37 SSW 0,0
03.07.2020 13:00:00 17,6 11,1 39 21 57 31 SW 0,0
03.07.2020 12:00:00 17,6 10,5 37 20 54 29 SW 0,0
03.07.2020 11:00:00 17,1 10,2 35 19 50 27 SW 0,0
03.07.2020 10:00:00 16,8 10,8 26 14 - - SW 0,0
03.07.2020 09:00:00 16,5 10,8 22 12 - - WSW 0,0
03.07.2020 08:00:00 14,3 11,5 22 12 - - WSW 0,0
03.07.2020 07:00:00 12,6 10,4 16 9 - - SW 0,0
03.07.2020 06:00:00 11,7 10,0 18 10 - - SW 0,0
03.07.2020 05:00:00 11,4 9,9 9 5 - - WSW 0,0
03.07.2020 04:00:00 11,8 10,2 9 5 - - W 0,0
03.07.2020 03:00:00 12,4 10,4 11 6 - - W 0,0
03.07.2020 02:00:00 13,0 10,6 9 5 - - W 0,0
03.07.2020 01:00:00 14,2 10,4 15 8 - - W 0,0
03.07.2020 00:00:00 15,1 9,9 15 8 - - NW 0,0
02.07.2020 23:00:00 16,4 11,0 15 8 - - WNW 0,0
02.07.2020 22:00:00 17,3 11,3 15 8 - - W 0,0
02.07.2020 21:00:00 18,6 10,7 26 14 - - W 0,0
02.07.2020 20:00:00 19,4 12,3 18 10 - - W 0,0
02.07.2020 19:00:00 19,5 12,1 21 11 - - W 0,0
02.07.2020 18:00:00 19,6 11,8 26 14 - - W 0,0
02.07.2020 17:00:00 19,5 11,7 24 13 - - WSW 0,0
02.07.2020 16:00:00 19,6 12,2 18 10 - - WSW 0,0
02.07.2020 15:00:00 18,9 10,9 18 10 - - W 0,0
02.07.2020 14:00:00 18,0 11,8 15 8 - - W 0,0
02.07.2020 13:00:00 17,9 11,9 13 7 - - W 0,0
02.07.2020 12:00:00 18,3 11,0 21 11 - - WSW 0,0
02.07.2020 11:00:00 17,8 11,3 22 12 - - WSW 0,0
02.07.2020 10:00:00 17,2 11,3 21 11 - - WSW 0,0
02.07.2020 09:00:00 15,6 11,4 15 8 - - WSW 0,0
02.07.2020 08:00:00 14,9 11,8 21 11 - - WSW 0,0
02.07.2020 07:00:00 13,8 11,8 15 8 - - WSW 0,0
02.07.2020 06:00:00 12,6 11,3 8 4 - - WSW 0,0
02.07.2020 05:00:00 12,4 10,8 9 5 - - SW 0,0
02.07.2020 04:00:00 12,7 10,8 11 6 - - SW 0,0
02.07.2020 03:00:00 12,8 11,1 11 6 - - SW 0,0
02.07.2020 02:00:00 13,4 11,4 11 6 - - WSW 0,0
02.07.2020 01:00:00 14,4 11,6 11 6 - - W 0,0
02.07.2020 00:00:00 15,4 11,9 11 6 - - NW 0,0
01.07.2020 23:00:00 16,2 14,2 8 4 - - WSW 0,0
01.07.2020 22:00:00 16,3 14,4 16 9 - - SW 0,0
01.07.2020 21:00:00 16,7 14,3 21 11 - - SSW 0,0
01.07.2020 20:00:00 17,3 14,2 16 9 - - SSW 0,0
01.07.2020 19:00:00 18,2 13,7 26 14 - - SW 0,0
01.07.2020 18:00:00 18,9 14,2 28 15 - - SW 0,0
01.07.2020 17:00:00 19,1 14,1 29 16 46 25 SW 0,0
01.07.2020 16:00:00 18,6 14,1 31 17 46 25 SSW 0,0
01.07.2020 15:00:00 18,4 14,1 24 13 - - SSW 0,0
01.07.2020 14:00:00 18,0 13,7 21 11 - - SSW 0,0
01.07.2020 13:00:00 18,1 14,0 22 12 - - S 0,0
01.07.2020 12:00:00 18,7 13,5 24 13 - - SW 0,0
01.07.2020 11:00:00 17,4 13,0 24 13 - - SW 0,0
01.07.2020 10:00:00 16,9 12,7 24 13 - - SW 0,0
01.07.2020 09:00:00 16,7 12,6 18 10 - - SW 0,0
01.07.2020 08:00:00 15,9 12,6 22 12 - - SW 0,0
01.07.2020 07:00:00 15,3 12,5 16 9 - - SW 0,0
01.07.2020 06:00:00 14,6 12,9 18 10 - - SW 0,0
01.07.2020 05:00:00 14,6 12,9 16 9 - - SW 0,0
01.07.2020 04:00:00 15,0 13,0 13 7 - - SW 0,0
01.07.2020 03:00:00 15,2 12,9 16 9 - - SW 0,0

tt = Température de l'air
td = dewpoint
ff = Vitesse du vent
fx = gusts
dd = Direction du vent
rr = Quantités de précipitations

stations d'obs. à proximité